createdAt,value
2018-04-16T00:03:32.640Z,11.50
2018-04-16T00:07:35.308Z,11.50
2018-04-16T00:11:37.988Z,11.50
2018-04-16T00:15:41.421Z,11.40
2018-04-16T00:19:44.084Z,11.40
2018-04-16T00:23:47.579Z,11.40
2018-04-16T00:27:50.243Z,11.40
2018-04-16T00:31:58.547Z,11.40
2018-04-16T00:36:06.904Z,11.40
2018-04-16T00:40:15.276Z,11.30
2018-04-16T00:44:23.618Z,11.30
2018-04-16T00:48:32.107Z,11.30
2018-04-16T00:52:40.433Z,11.30
2018-04-16T01:01:25.736Z,11.20
2018-04-16T01:05:34.689Z,11.20
2018-04-16T01:09:43.011Z,11.10
2018-04-16T01:13:51.247Z,11.10
2018-04-16T01:17:59.449Z,11.10
2018-04-16T01:31:12.064Z,10.90
2018-04-16T01:35:32.388Z,10.90
2018-04-16T01:39:53.853Z,10.90
2018-04-16T01:44:02.171Z,10.90
2018-04-16T01:48:10.458Z,10.90
2018-04-16T01:52:18.753Z,10.80
2018-04-16T01:56:27.141Z,10.90
2018-04-16T02:00:35.406Z,10.80
2018-04-16T02:04:43.814Z,10.80
2018-04-16T02:08:52.169Z,10.80
2018-04-16T02:13:00.647Z,10.90
2018-04-16T02:17:08.968Z,10.80
2018-04-16T02:21:17.309Z,10.80
2018-04-16T02:25:25.668Z,10.80
2018-04-16T02:29:34.823Z,10.80
2018-04-16T02:33:43.059Z,10.70
2018-04-16T02:37:51.412Z,10.80
2018-04-16T02:41:59.624Z,10.80
2018-04-16T02:46:08.000Z,10.80
2018-04-16T02:50:17.101Z,10.70
2018-04-16T02:54:25.517Z,10.60
2018-04-16T02:58:33.675Z,10.70
2018-04-16T03:02:41.989Z,10.60
2018-04-16T03:06:50.362Z,10.60
2018-04-16T03:10:58.649Z,10.50
2018-04-16T03:15:07.801Z,10.40
2018-04-16T03:19:15.992Z,10.30
2018-04-16T03:23:24.413Z,10.30
2018-04-16T03:27:32.840Z,10.30
2018-04-16T03:31:41.981Z,10.20
2018-04-16T03:35:51.154Z,10.20
2018-04-16T03:39:59.433Z,10.10
2018-04-16T03:44:07.826Z,10.20
2018-04-16T03:48:16.091Z,10.20
2018-04-16T03:52:25.268Z,10.20
2018-04-16T03:56:27.960Z,10.20
2018-04-16T04:00:30.650Z,10.20
2018-04-16T04:04:33.333Z,10.20
2018-04-16T04:08:36.030Z,10.30
2018-04-16T04:12:38.762Z,10.30
2018-04-16T04:16:41.430Z,10.30
2018-04-16T04:20:44.049Z,10.30
2018-04-16T04:24:58.497Z,10.30
2018-04-16T04:29:13.048Z,10.30
2018-04-16T04:33:15.712Z,10.30
2018-04-16T04:37:18.388Z,10.30
2018-04-16T04:41:21.010Z,10.30
2018-04-16T04:45:23.689Z,10.20
2018-04-16T04:49:26.359Z,10.20
2018-04-16T04:53:29.125Z,10.20
2018-04-16T04:57:32.556Z,10.20
2018-04-16T05:01:35.224Z,10.10
2018-04-16T05:05:38.733Z,10.20
2018-04-16T05:09:42.168Z,10.20
2018-04-16T05:13:44.838Z,10.20
2018-04-16T05:17:48.328Z,10.20
2018-04-16T05:21:51.008Z,10.20
2018-04-16T05:25:53.674Z,10.30
2018-04-16T05:29:56.409Z,10.30
2018-04-16T05:33:59.849Z,10.30
2018-04-16T05:38:02.491Z,10.30
2018-04-16T05:42:05.160Z,10.40
2018-04-16T05:46:07.811Z,10.40
2018-04-16T05:50:10.456Z,10.40
2018-04-16T05:54:13.869Z,10.60
2018-04-16T05:58:17.297Z,10.70
2018-04-16T06:02:19.922Z,10.60
2018-04-16T06:06:22.576Z,10.80
2018-04-16T06:10:25.223Z,10.90
2018-04-16T06:14:27.869Z,11.10
2018-04-16T06:18:30.520Z,11.20
2018-04-16T06:22:33.912Z,11.50
2018-04-16T06:26:37.353Z,11.70
2018-04-16T06:30:40.131Z,11.60
2018-04-16T06:34:43.552Z,11.90
2018-04-16T06:38:46.208Z,11.90
2018-04-16T06:42:48.821Z,12.10
2018-04-16T06:46:51.473Z,12.20
2018-04-16T06:50:54.929Z,12.40
2018-04-16T06:54:57.585Z,12.40
2018-04-16T06:59:00.274Z,12.50
2018-04-16T07:03:03.666Z,12.70
2018-04-16T07:07:06.322Z,12.70
2018-04-16T07:11:08.979Z,13.00
2018-04-16T07:15:11.643Z,13.10
2018-04-16T07:19:15.050Z,14.10
2018-04-16T07:23:17.729Z,14.60
2018-04-16T07:27:20.393Z,14.80
2018-04-16T07:31:23.121Z,15.80
2018-04-16T07:35:26.549Z,17.70
2018-04-16T07:39:29.248Z,17.60
2018-04-16T07:43:31.880Z,18.40
2018-04-16T07:47:34.536Z,19.00
2018-04-16T07:51:37.176Z,19.30
2018-04-16T07:55:39.820Z,19.60
2018-04-16T07:59:42.468Z,20.00
2018-04-16T08:03:45.842Z,20.80
2018-04-16T08:07:48.484Z,20.80
2018-04-16T08:11:51.120Z,21.20
2018-04-16T08:15:53.766Z,21.60
2018-04-16T08:19:56.418Z,21.80
2018-04-16T08:23:59.802Z,21.80
2018-04-16T08:28:02.443Z,21.70
2018-04-16T08:32:05.084Z,21.30
2018-04-16T08:36:07.721Z,20.70
2018-04-16T08:40:10.376Z,20.20
2018-04-16T08:44:13.752Z,19.30
2018-04-16T08:48:16.396Z,19.30
2018-04-16T08:52:19.040Z,19.00
2018-04-16T08:56:21.710Z,18.80
2018-04-16T09:00:24.462Z,18.60
2018-04-16T09:04:27.060Z,18.40
2018-04-16T09:08:29.699Z,18.30
2018-04-16T09:12:32.335Z,18.20
2018-04-16T09:16:34.978Z,18.10
2018-04-16T09:20:37.620Z,18.10
2018-04-16T09:24:40.224Z,18.00
2018-04-16T09:28:42.869Z,17.90
2018-04-16T09:32:45.515Z,17.90
2018-04-16T09:36:48.163Z,17.90
2018-04-16T09:40:50.800Z,18.00
2018-04-16T09:44:53.530Z,18.00
2018-04-16T09:48:56.170Z,18.00
2018-04-16T09:52:58.806Z,18.00
2018-04-16T09:57:01.445Z,18.00
2018-04-16T10:05:39.344Z,18.10
2018-04-16T10:09:41.988Z,18.10
2018-04-16T10:13:44.632Z,18.20
2018-04-16T10:17:47.277Z,18.20
2018-04-16T10:21:50.740Z,18.20
2018-04-16T10:25:53.344Z,18.20
2018-04-16T10:29:55.989Z,18.20
2018-04-16T10:33:58.629Z,18.20
2018-04-16T10:38:01.266Z,18.20
2018-04-16T10:42:03.921Z,18.20
2018-04-16T10:46:07.353Z,18.20
2018-04-16T10:50:09.997Z,18.10
2018-04-16T10:54:12.640Z,18.20
2018-04-16T10:58:15.334Z,18.10
2018-04-16T11:02:18.024Z,18.10
2018-04-16T11:06:20.636Z,18.20
2018-04-16T11:10:23.281Z,18.20
2018-04-16T11:14:25.919Z,18.20
2018-04-16T11:18:28.566Z,18.20
2018-04-16T11:22:31.268Z,18.20
2018-04-16T11:26:33.875Z,18.20
2018-04-16T11:30:36.514Z,18.20
2018-04-16T11:34:39.978Z,18.10
2018-04-16T11:38:42.622Z,18.10
2018-04-16T11:42:45.328Z,18.20
2018-04-16T11:46:47.999Z,18.20
2018-04-16T11:50:50.644Z,18.30
2018-04-16T11:54:53.292Z,18.30
2018-04-16T11:58:56.709Z,18.30
2018-04-16T12:02:59.351Z,18.20
2018-04-16T12:07:02.719Z,18.30
2018-04-16T12:11:05.368Z,18.30
2018-04-16T12:15:08.016Z,18.40
2018-04-16T12:19:10.660Z,18.40
2018-04-16T12:23:13.333Z,18.50
2018-04-16T12:27:16.000Z,18.40
2018-04-16T12:31:19.403Z,18.30
2018-04-16T12:35:22.873Z,18.20
2018-04-16T12:39:26.313Z,18.20
2018-04-16T12:43:29.730Z,18.10
2018-04-16T12:47:33.108Z,18.10
2018-04-16T12:51:36.558Z,18.10
2018-04-16T12:55:39.204Z,18.10
2018-04-16T12:59:41.845Z,18.20
2018-04-16T13:03:44.492Z,18.30
2018-04-16T13:07:47.232Z,18.50
2018-04-16T13:11:49.887Z,18.50
2018-04-16T13:15:53.308Z,18.70
2018-04-16T13:19:56.009Z,18.60
2018-04-16T13:23:58.667Z,18.70
2018-04-16T13:28:02.100Z,18.70
2018-04-16T13:32:04.782Z,18.70
2018-04-16T13:36:07.484Z,18.80
2018-04-16T13:40:10.124Z,18.80
2018-04-16T13:44:12.812Z,18.90
2018-04-16T13:48:15.425Z,18.90
2018-04-16T13:52:18.832Z,18.80
2018-04-16T13:56:22.292Z,18.80
2018-04-16T14:00:24.932Z,18.80
2018-04-16T14:04:27.563Z,18.90
2018-04-16T14:08:30.172Z,19.00
2018-04-16T14:12:32.823Z,19.10
2018-04-16T14:16:35.463Z,19.10
2018-04-16T14:20:38.873Z,19.10
2018-04-16T14:24:42.283Z,19.20
2018-04-16T14:28:45.661Z,19.30
2018-04-16T14:32:48.305Z,19.30
2018-04-16T14:36:50.948Z,19.50
2018-04-16T14:40:53.594Z,19.60
2018-04-16T14:44:56.232Z,19.70
2018-04-16T14:48:59.600Z,19.70
2018-04-16T14:53:02.246Z,19.70
2018-04-16T14:57:05.653Z,19.70
2018-04-16T15:01:08.290Z,19.70
2018-04-16T15:05:10.946Z,19.70
2018-04-16T15:09:13.569Z,19.70
2018-04-16T15:13:16.224Z,19.60
2018-04-16T15:17:18.866Z,19.70
2018-04-16T15:21:21.521Z,19.70
2018-04-16T15:25:24.181Z,19.70
2018-04-16T15:29:26.800Z,19.70
2018-04-16T15:33:29.449Z,19.70
2018-04-16T15:37:32.092Z,19.70
2018-04-16T15:41:34.760Z,19.70
2018-04-16T15:45:37.392Z,19.70
2018-04-16T15:49:40.054Z,19.60
2018-04-16T15:53:42.691Z,19.40
2018-04-16T15:57:45.347Z,19.40
2018-04-16T16:01:47.984Z,19.40
2018-04-16T16:05:50.691Z,19.30
2018-04-16T16:09:53.424Z,19.30
2018-04-16T16:13:56.153Z,19.30
2018-04-16T16:17:58.792Z,19.20
2018-04-16T16:22:01.432Z,19.20
2018-04-16T16:26:04.078Z,19.20
2018-04-16T16:30:07.505Z,19.10
2018-04-16T16:34:10.146Z,19.00
2018-04-16T16:38:12.789Z,18.90
2018-04-16T16:42:15.429Z,18.90
2018-04-16T16:46:18.077Z,18.80
2018-04-16T16:50:20.693Z,18.70
2018-04-16T16:54:23.405Z,18.70
2018-04-16T16:58:26.039Z,18.60
2018-04-16T17:02:28.708Z,18.60
2018-04-16T17:06:31.368Z,18.50
2018-04-16T17:10:34.040Z,18.40
2018-04-16T17:14:36.693Z,18.40
2018-04-16T17:18:39.340Z,18.30
2018-04-16T17:22:42.097Z,18.30
2018-04-16T17:26:44.744Z,18.30
2018-04-16T17:30:48.114Z,18.20
2018-04-16T17:34:50.824Z,18.10
2018-04-16T17:38:54.290Z,18.00
2018-04-16T17:42:56.932Z,18.00
2018-04-16T17:47:00.341Z,17.90
2018-04-16T17:51:03.763Z,17.80
2018-04-16T17:55:06.476Z,17.80
2018-04-16T17:59:09.135Z,17.80
2018-04-16T18:03:11.832Z,17.60
2018-04-16T18:07:14.500Z,17.50
2018-04-16T18:11:17.876Z,17.40
2018-04-16T18:15:20.537Z,17.30
2018-04-16T18:19:23.175Z,17.30
2018-04-16T18:23:27.415Z,17.10
2018-04-16T18:27:30.189Z,17.10
2018-04-16T18:31:35.118Z,17.00
2018-04-16T18:35:40.174Z,16.90
2018-04-16T18:39:43.224Z,16.90
2018-04-16T18:43:45.913Z,16.80
2018-04-16T18:47:48.548Z,16.70
2018-04-16T18:51:51.980Z,16.50
2018-04-16T18:55:55.760Z,16.50
2018-04-16T18:59:59.248Z,16.40
2018-04-16T19:04:06.029Z,16.30
2018-04-16T19:08:08.766Z,16.30
2018-04-16T19:12:11.431Z,16.20
2018-04-16T19:16:19.587Z,16.00
2018-04-16T19:20:27.807Z,16.00
2018-04-16T19:24:30.443Z,16.00
2018-04-16T19:28:34.186Z,15.90
2018-04-16T19:32:42.552Z,15.80
2018-04-16T19:36:45.264Z,15.80
2018-04-16T19:40:47.946Z,15.70
2018-04-16T19:44:50.598Z,15.60
2018-04-16T19:53:34.567Z,15.50
2018-04-16T19:57:42.979Z,15.40
2018-04-16T20:01:45.630Z,15.40
2018-04-16T20:05:48.344Z,15.40
2018-04-16T20:09:51.749Z,15.20
2018-04-16T20:13:55.168Z,15.20
2018-04-16T20:17:57.827Z,15.10
2018-04-16T20:22:01.280Z,15.10
2018-04-16T20:26:03.952Z,15.00
2018-04-16T20:30:07.476Z,14.90
2018-04-16T20:34:10.145Z,14.90
2018-04-16T20:38:13.649Z,14.80
2018-04-16T20:42:16.287Z,14.70
2018-04-16T20:46:18.940Z,14.70
2018-04-16T20:50:21.587Z,14.60
2018-04-16T20:54:24.204Z,14.60
2018-04-16T20:58:27.634Z,14.40
2018-04-16T21:02:30.288Z,14.40
2018-04-16T21:06:32.943Z,14.30
2018-04-16T21:10:35.598Z,14.30
2018-04-16T21:14:38.208Z,14.20
2018-04-16T21:18:40.843Z,14.10
2018-04-16T21:22:43.540Z,14.00
2018-04-16T21:26:47.010Z,13.90
2018-04-16T21:30:49.659Z,13.80
2018-04-16T21:34:52.319Z,13.90
2018-04-16T21:38:55.723Z,13.70
2018-04-16T21:42:59.128Z,13.60
2018-04-16T21:47:01.767Z,13.60
2018-04-16T21:51:04.423Z,13.50
2018-04-16T21:55:07.126Z,13.50
2018-04-16T21:59:09.827Z,13.40
2018-04-16T22:03:12.498Z,13.30
2018-04-16T22:07:15.144Z,13.30
2018-04-16T22:11:17.787Z,13.20
2018-04-16T22:15:20.401Z,13.10
2018-04-16T22:19:23.163Z,13.10
2018-04-16T22:23:25.811Z,13.00
2018-04-16T22:27:28.468Z,12.90
2018-04-16T22:31:31.117Z,12.90
2018-04-16T22:35:33.728Z,12.80
2018-04-16T22:39:36.376Z,12.70
2018-04-16T22:43:39.798Z,12.60
2018-04-16T22:47:42.437Z,12.50
2018-04-16T22:51:45.081Z,12.50
2018-04-16T22:55:47.715Z,12.40
2018-04-16T22:59:50.388Z,12.40
2018-04-16T23:03:53.043Z,12.30
2018-04-16T23:07:55.689Z,12.20
2018-04-16T23:11:58.323Z,12.20
2018-04-16T23:16:00.937Z,12.10
2018-04-16T23:20:03.580Z,12.00
2018-04-16T23:24:07.002Z,12.00
2018-04-16T23:28:09.644Z,11.90
2018-04-16T23:32:12.256Z,11.90
2018-04-16T23:36:15.674Z,11.80
2018-04-16T23:40:19.091Z,11.70
2018-04-16T23:44:21.760Z,11.70
2018-04-16T23:48:24.444Z,11.70
2018-04-16T23:52:27.824Z,11.50
2018-04-16T23:56:30.464Z,11.50
